Terminal Aerodrome Forecast
Issued by NWS

Home | Current Version | Previous Version | Text Only | Print | Product List | Glossary On
Versions: 1 2 3 4 5 6 7 8 9 10 11 12 13 14 15
450
FTUS45 KTFX 271157
TAFGTF
TAF
KGTF 271157Z 2712/2812 21006KT P6SM SCT090 BKN150
     FM271700 25008KT P6SM SCT050 BKN090
     FM272100 27007KT P6SM VCSH SCT045 BKN070 PROB30 2721/2802
      VRB15G25KT 5SM -TSRA BKN045CB
     FM280300 25006KT P6SM SCT050 BKN090=

USA.gov is the U.S. government's official web portal to all federal, state and local government web resources and services.